x

Bay Of Campeche - 214 Nm Ne Of Veracruz, Mx (42055) Wave Buoy

4:50pm - Thu 17th Aug 2017 All times are UTC.

  • Sig Wave height 3.6ft
  • Swell Direction
  • Peak Period 6s
  • Average Period 4s
  • Wind
    13mph, 16mph gusts
  • Sea Temp 85°f
  • Air Temp 85°f
  • Sea Pressure 1016.5mb

More Historic Weather Station data

Upgrade to MSW Pro to gain access to the past 30 days of data for over 8000 Wavebouys and Weather Stations around the globe.

Join

Comparision Forecast

View Surf forecast
   
Thu 08/17 4:50pm 3.5ft 6s 4s 13 16 mph 1016.5mb 85f 85f
3:50pm 4ft 6s 5s 16 18 mph 1016.4mb 85f 85f
2:50pm 3.5ft 5s 4s 18 20 mph 1016.2mb 85f 85f
1:50pm 4ft 6s 4s 18 22 mph 1015.7mb 85f 85f
12:50pm 3.5ft 5s 4s 18 22 mph 1015.4mb 85f 85f
11:50am 3.5ft 6s 4s 18 20 mph 1014.8mb 85f 85f
10:50am 3.5ft 6s 4s 18 22 mph 1014.2mb 85f 85f
9:50am 3.5ft 6s 4s 18 20 mph 1013.7mb 85f 85f
8:50am 3.5ft 6s 4s 18 20 mph 1014.1mb 85f 85f
7:50am 4.5ft 6s 5s 18 20 mph 1014.5mb 85f 85f
6:50am 4ft 6s 5s 18 20 mph 1014.8mb 85f 85f
5:50am 4.5ft 7s 5s 16 20 mph 1015.4mb 85f 85f
4:50am 4.5ft 6s 5s 16 20 mph 1015.7mb 85f 85f
3:50am 4.5ft 6s 5s 16 18 mph 1015.8mb 85f 85f
2:50am 4ft 6s 5s 16 20 mph 1015.3mb 85f 85f
1:50am 4.5ft 6s 5s 18 20 mph 1014.3mb 85f 85f
12:50am 4ft 7s 5s 16 18 mph 1013.6mb 85f 85f
Wed 08/16 10:50pm 4.5ft 6s 5s 13 18 mph 1013.2mb 86f 85f
9:50pm 5ft 6s 5s 16 18 mph 1013.2mb 86f 85f
8:50pm 4.5ft 6s 5s 18 20 mph 1013.5mb 86f 85f
7:50pm 5ft 6s 5s 18 22 mph 1013.8mb 85f 85f
6:50pm 4.5ft 6s 5s 20 22 mph 1014.3mb 85f 85f
5:50pm 5ft 6s 5s 20 25 mph 1014.4mb 85f 85f
4:50pm 4.5ft 5s 4s 20 25 mph 1014.4mb 85f 86f
3:50pm 4.5ft 6s 4s 22 25 mph 1014.3mb 85f 86f
2:50pm 4.5ft 5s 4s 20 25 mph 1014.2mb 85f 86f
1:50pm 4.5ft 5s 4s 22 25 mph 1013.7mb 85f 86f
12:50pm 4.5ft 5s 4s 22 27 mph 1013.4mb 85f 86f
11:50am 4ft 6s 4s 20 25 mph 1012.8mb 85f 86f
10:50am 4ft 6s 4s 20 25 mph 1012.6mb 85f 85f
9:50am 4.5ft 6s 4s 20 22 mph 1012.5mb 85f 85f
8:50am 4.5ft 5s 4s 20 22 mph 1012.7mb 85f 85f
7:50am 5ft 6s 5s 20 22 mph 1012.7mb 85f 85f
6:50am 4.5ft 6s 4s 22 25 mph 1013mb 85f 85f
5:50am 5ft 6s 5s 22 27 mph 1013.1mb 85f 85f
4:50am 5ft 6s 5s 22 27 mph 1013.2mb 85f 85f
3:50am 5ft 7s 5s 20 22 mph 1012.9mb 85f 85f
2:50am 5ft 6s 5s 18 22 mph 1012.4mb 85f 85f
1:50am 4.5ft 6s 5s 20 25 mph 1011.4mb 86f 85f
12:50am 4.5ft 6s 5s 16 20 mph 1011.1mb 86f 85f
Tue 08/15 11:50pm 4.5ft 6s 5s 18 20 mph 1010.8mb 86f 85f
10:50pm 5ft 7s 5s 20 22 mph 1010.7mb 86f 85f
9:50pm 4.5ft 6s 5s 18 20 mph 1011mb 86f 85f
8:50pm 5ft 6s 5s 18 22 mph 1011.2mb 86f 85f
7:50pm 4.5ft 6s 5s 16 18 mph 1011.6mb 86f 85f
6:50pm 4ft 6s 5s 16 18 mph 1012mb 86f 85f
5:50pm 4.5ft 6s 5s 16 20 mph 1012.8mb 86f 85f
4:50pm 4.5ft 6s 5s 18 22 mph 1013.1mb 86f 85f
2:50pm 4.5ft 6s  -  18 22 mph 1012.9mb 85f 85f
1:50pm 4.5ft 5s 4s 20 22 mph 1012.6mb 85f 85f
12:50pm 3.5ft 5s 4s 18 22 mph 1012.2mb 85f 85f
11:50am 3.5ft 5s 4s 20 22 mph 1011.7mb 85f 85f
10:50am 3.5ft 5s 4s 18 22 mph 1011.3mb 85f 85f
9:50am 3.5ft 5s 4s 18 22 mph 1011.3mb 85f 85f
8:50am 3ft 5s 4s 18 22 mph 1011.1mb 85f 85f
7:50am 2.5ft 5s 4s 20 25 mph 1011.1mb 85f 85f
6:50am 2.5ft 5s 4s 18 20 mph 1011.2mb 85f 84f
5:50am 2.5ft 5s 4s 16 20 mph 1011.4mb 86f 84f
4:50am 2.5ft 5s 4s 16 18 mph 1011.9mb 86f 85f
3:50am 2.5ft 5s 4s 16 18 mph 1012.2mb 86f 85f
2:50am 2.5ft 5s 4s 18 20 mph 1012.1mb 86f 85f
1:50am 2.5ft 5s 4s 13 16 mph 1011.4mb 86f 85f
12:50am 2.5ft 5s 4s 11 13 mph 1010.5mb 86f 85f
Mon 08/14 11:50pm 2.5ft 5s 4s 13 16 mph 1010mb 86f 85f
10:50pm 2.5ft 5s 4s 13 16 mph 1010.3mb 86f 85f
9:50pm 2.5ft 5s 4s 11 16 mph 1010.8mb 86f 85f
8:50pm 2ft 4s 4s 13 16 mph 1011.1mb 86f 85f
7:50pm 2ft 5s 4s 13 16 mph 1011.6mb 86f 85f
6:50pm 1.6ft 4s 4s 13 16 mph 1012.1mb 86f 85f
5:50pm 1.6ft 4s 4s 11 13 mph 1012.6mb 86f 85f
4:50pm 1.6ft 4s 4s 9 11 mph 1012.8mb 86f 85f
3:50pm 1.6ft 4s 4s 11 13 mph 1012.8mb 86f 85f
2:50pm 2ft 4s 4s 11 13 mph 1012.6mb 86f 85f
1:50pm 2ft 4s 4s 11 13 mph 1012.7mb 85f 85f
12:50pm 2ft 4s 4s 11 13 mph 1012.4mb 85f 85f
11:50am 2ft 4s 4s 13 16 mph 1011.9mb 85f 84f
10:50am 2ft 4s 3s 13 16 mph 1011.9mb 85f 84f
9:50am 1.6ft 4s 4s 13 18 mph 1011.7mb 85f 84f
8:50am 1.6ft 4s 4s 11 13 mph 1011.9mb 86f 84f
7:50am 1.6ft 4s  -  11 13 mph 1012.1mb 86f 84f
6:50am 1.6ft 4s 3s 9 13 mph 1012.5mb 86f 84f
5:50am 1.6ft 3s 3s 11 13 mph 1012.7mb 86f 84f
4:50am 1.6ft 4s 3s 16 18 mph 1013.2mb 86f 85f
3:50am 1.3ft 4s 3s 13 16 mph 1013.6mb 86f 85f
2:50am 1.3ft 4s 3s 13 16 mph 1013.2mb 86f 85f
1:50am 1.3ft 4s 3s 13 16 mph 1012.7mb 86f 85f
12:50am 1ft 4s 3s 11 13 mph 1012.3mb 86f 85f
Sun 08/13 11:50pm 1ft 4s 3s 9 11 mph 1012.2mb 87f 85f
10:50pm 1ft 4s 3s 7 9 mph 1012.4mb 87f 85f
9:50pm 1ft 4s 3s 9 11 mph 1012.7mb 87f 85f
8:50pm 1ft 3s 3s 9 11 mph 1013.2mb 87f 85f
7:50pm 1ft 3s 3s 9 11 mph 1013.3mb 87f 85f
6:50pm 1ft 3s 3s 9 11 mph 1014mb 86f 85f